createdAt,value
2023-01-19T00:00:55.960Z,98.03
2023-01-19T00:04:30.651Z,98.37
2023-01-19T00:08:04.806Z,99.48
2023-01-19T00:11:33.710Z,97.88
2023-01-19T00:15:21.614Z,98.23
2023-01-19T00:19:03.413Z,97.97
2023-01-19T00:22:37.489Z,96.70
2023-01-19T00:25:59.303Z,97.45
2023-01-19T00:29:38.264Z,97.66
2023-01-19T00:33:08.717Z,96.84
2023-01-19T00:36:45.837Z,97.66
2023-01-19T00:40:17.999Z,98.40
2023-01-19T00:44:00.026Z,97.99
2023-01-19T00:47:49.317Z,98.87
2023-01-19T00:51:38.564Z,99.09
2023-01-19T00:55:15.445Z,98.99
2023-01-19T00:58:57.554Z,98.22
2023-01-19T01:02:22.980Z,97.19
2023-01-19T01:05:45.383Z,97.28
2023-01-19T01:08:52.956Z,98.12
2023-01-19T01:12:31.948Z,98.04
2023-01-19T01:16:19.929Z,97.56
2023-01-19T01:20:07.777Z,97.09
2023-01-19T01:23:26.074Z,96.40
2023-01-19T01:27:00.477Z,96.10
2023-01-19T01:30:43.577Z,97.64
2023-01-19T01:34:11.161Z,96.73
2023-01-19T01:37:51.235Z,97.85
2023-01-19T01:41:12.569Z,97.84
2023-01-19T01:44:52.161Z,98.05
2023-01-19T01:48:44.163Z,98.69
2023-01-19T01:52:09.667Z,97.83
2023-01-19T01:55:26.089Z,98.53
2023-01-19T01:58:49.448Z,98.53
2023-01-19T02:02:21.748Z,98.32
2023-01-19T02:05:46.759Z,98.64
2023-01-19T02:09:43.732Z,99.15
2023-01-19T02:13:09.115Z,98.42
2023-01-19T02:16:47.093Z,99.68
2023-01-19T02:20:19.291Z,98.73
2023-01-19T02:23:59.359Z,98.53
2023-01-19T02:27:47.738Z,98.69
2023-01-19T02:31:21.821Z,99.93
2023-01-19T02:35:01.018Z,98.78
2023-01-19T02:38:38.762Z,99.04
2023-01-19T02:42:12.890Z,98.95
2023-01-19T02:45:36.053Z,99.94
2023-01-19T02:48:59.683Z,99.72
2023-01-19T02:52:35.135Z,99.90
2023-01-19T02:56:15.316Z,100.00
2023-01-19T02:59:52.351Z,99.38
2023-01-19T03:03:35.830Z,99.88
2023-01-19T03:07:26.445Z,99.81
2023-01-19T03:11:10.872Z,99.93
2023-01-19T03:14:33.712Z,100.00
2023-01-19T03:18:15.733Z,100.00
2023-01-19T03:21:54.748Z,100.00
2023-01-19T03:25:22.794Z,100.00
2023-01-19T03:28:37.207Z,100.00
2023-01-19T03:32:13.679Z,100.00
2023-01-19T03:35:25.192Z,99.75
2023-01-19T03:38:54.851Z,99.75
2023-01-19T03:42:07.479Z,100.00
2023-01-19T03:45:36.482Z,100.00
2023-01-19T03:49:24.481Z,100.00
2023-01-19T03:52:58.489Z,100.00
2023-01-19T03:56:18.893Z,100.00
2023-01-19T03:59:22.431Z,100.00
2023-01-19T04:02:53.941Z,100.00
2023-01-19T04:05:33.192Z,100.00
2023-01-19T04:09:03.527Z,100.00
2023-01-19T04:12:37.548Z,100.00
2023-01-19T04:16:12.086Z,100.00
2023-01-19T04:19:28.759Z,100.00
2023-01-19T04:22:57.055Z,100.00
2023-01-19T04:26:36.223Z,100.00
2023-01-19T04:30:15.320Z,100.00
2023-01-19T04:33:46.996Z,100.00
2023-01-19T04:37:11.993Z,100.00
2023-01-19T04:40:17.859Z,100.00
2023-01-19T04:43:38.590Z,100.00
2023-01-19T04:47:05.616Z,99.76
2023-01-19T04:50:54.883Z,99.81
2023-01-19T04:54:27.680Z,100.00
2023-01-19T04:57:57.046Z,100.00
2023-01-19T05:00:55.909Z,99.95
2023-01-19T05:04:24.212Z,100.00
2023-01-19T05:07:48.819Z,100.00
2023-01-19T05:11:36.839Z,99.96
2023-01-19T05:15:10.139Z,100.00
2023-01-19T05:18:59.351Z,100.00
2023-01-19T05:22:48.691Z,99.86
2023-01-19T05:26:30.471Z,100.00
2023-01-19T05:30:06.468Z,99.35
2023-01-19T05:33:45.637Z,97.92
2023-01-19T05:37:20.271Z,97.22
2023-01-19T05:41:03.108Z,97.27
2023-01-19T05:44:45.008Z,97.32
2023-01-19T05:47:41.955Z,96.89
2023-01-19T05:50:55.449Z,96.08
2023-01-19T05:54:25.298Z,96.43
2023-01-19T05:57:57.185Z,96.67
2023-01-19T06:01:38.041Z,97.34
2023-01-19T06:04:53.529Z,97.01
2023-01-19T06:08:19.117Z,97.31
2023-01-19T06:11:21.115Z,97.27
2023-01-19T06:14:56.030Z,97.51
2023-01-19T06:18:16.282Z,97.57
2023-01-19T06:21:26.107Z,97.86
2023-01-19T06:24:53.431Z,97.95
2023-01-19T06:28:05.477Z,97.56
2023-01-19T06:31:54.839Z,97.50
2023-01-19T06:35:44.116Z,97.74
2023-01-19T06:39:04.522Z,97.61
2023-01-19T06:42:29.082Z,98.11
2023-01-19T06:46:01.329Z,97.98
2023-01-19T06:49:33.879Z,98.75
2023-01-19T06:53:12.886Z,99.03
2023-01-19T06:56:59.958Z,98.88
2023-01-19T07:00:41.258Z,99.20
2023-01-19T07:03:38.260Z,99.13
2023-01-19T07:07:27.509Z,98.18
2023-01-19T07:11:25.420Z,97.88
2023-01-19T07:14:20.968Z,98.34
2023-01-19T07:17:01.719Z,98.73
2023-01-19T07:19:36.436Z,98.86
2023-01-19T07:22:13.125Z,98.85
2023-01-19T07:38:07.804Z,96.93
2023-01-19T07:42:06.260Z,96.38
2023-01-19T07:45:55.472Z,95.86
2023-01-19T07:49:44.658Z,93.38
2023-01-19T07:53:33.938Z,95.10
2023-01-19T07:57:23.189Z,94.47
2023-01-19T08:01:12.676Z,92.72
2023-01-19T08:05:01.943Z,88.50
2023-01-19T08:08:51.101Z,90.36
2023-01-19T08:12:40.443Z,84.91
2023-01-19T08:16:03.425Z,76.60
2023-01-19T08:19:30.644Z,78.27
2023-01-19T08:22:59.851Z,75.68
2023-01-19T08:26:38.366Z,75.78
2023-01-19T08:29:50.425Z,61.96
2023-01-19T08:33:04.135Z,62.82
2023-01-19T08:36:17.229Z,60.62
2023-01-19T08:39:28.221Z,62.59
2023-01-19T08:43:00.731Z,61.46
2023-01-19T08:46:05.575Z,61.72
2023-01-19T08:49:06.108Z,61.97
2023-01-19T08:51:51.468Z,59.37
2023-01-19T08:54:43.565Z,60.58
2023-01-19T08:57:42.929Z,59.85
2023-01-19T09:00:52.634Z,58.73
2023-01-19T09:03:36.172Z,60.37
2023-01-19T09:06:24.521Z,57.73
2023-01-19T09:09:32.427Z,53.88
2023-01-19T09:12:08.904Z,57.34
2023-01-19T09:14:52.954Z,53.64
2023-01-19T09:17:36.467Z,52.45
2023-01-19T09:20:31.515Z,55.46
2023-01-19T09:23:16.949Z,50.80
2023-01-19T09:26:51.393Z,52.36
2023-01-19T09:29:44.183Z,53.04
2023-01-19T09:32:52.539Z,52.71
2023-01-19T09:36:00.209Z,55.98
2023-01-19T09:39:13.058Z,55.58
2023-01-19T09:43:06.383Z,56.87
2023-01-19T09:46:43.020Z,57.83
2023-01-19T09:49:58.681Z,58.84
2023-01-19T09:53:19.126Z,58.35
2023-01-19T09:56:34.089Z,56.97
2023-01-19T09:59:50.921Z,57.14
2023-01-19T10:03:20.974Z,54.82
2023-01-19T10:06:23.251Z,55.57
2023-01-19T10:09:50.690Z,54.26
2023-01-19T10:13:44.811Z,58.08
2023-01-19T10:17:07.903Z,57.76
2023-01-19T10:20:14.128Z,53.42
2023-01-19T10:22:50.042Z,53.49
2023-01-19T10:25:31.987Z,50.46
2023-01-19T10:28:13.735Z,47.43
2023-01-19T10:30:48.233Z,51.01
2023-01-19T10:33:20.859Z,46.58
2023-01-19T10:35:54.605Z,47.22
2023-01-19T10:38:47.044Z,46.33
2023-01-19T10:41:32.023Z,45.70
2023-01-19T10:44:23.275Z,45.77
2023-01-19T10:47:16.798Z,45.78
2023-01-19T10:50:16.091Z,46.59
2023-01-19T10:52:53.111Z,47.39
2023-01-19T10:55:44.930Z,47.10
2023-01-19T10:58:35.062Z,47.34
2023-01-19T11:01:22.032Z,47.33
2023-01-19T11:04:10.369Z,47.53
2023-01-19T11:07:24.688Z,45.46
2023-01-19T11:10:14.167Z,45.55
2023-01-19T11:13:19.823Z,45.10
2023-01-19T11:16:03.673Z,45.35
2023-01-19T11:19:04.396Z,44.84
2023-01-19T11:22:06.580Z,44.74
2023-01-19T11:25:04.248Z,45.44
2023-01-19T11:28:12.635Z,46.21
2023-01-19T11:31:52.965Z,48.15
2023-01-19T11:35:16.219Z,48.37
2023-01-19T11:38:49.058Z,49.99
2023-01-19T11:42:37.288Z,50.75
2023-01-19T11:46:20.369Z,51.69
2023-01-19T11:50:27.599Z,53.09
2023-01-19T11:54:28.637Z,53.07
2023-01-19T11:57:57.866Z,52.85
2023-01-19T12:01:32.604Z,53.14
2023-01-19T12:05:10.117Z,52.84
2023-01-19T12:08:34.065Z,51.85
2023-01-19T12:11:48.242Z,52.10
2023-01-19T12:15:25.751Z,52.55
2023-01-19T12:18:55.826Z,53.90
2023-01-19T12:22:42.737Z,53.73
2023-01-19T12:26:05.773Z,52.35
2023-01-19T12:30:00.705Z,51.99
2023-01-19T12:34:01.790Z,51.37
2023-01-19T12:37:35.122Z,50.25
2023-01-19T12:41:15.950Z,49.87
2023-01-19T12:45:11.178Z,50.35
2023-01-19T12:49:05.984Z,51.14
2023-01-19T12:57:01.549Z,52.24
2023-01-19T13:00:36.229Z,51.94
2023-01-19T13:04:40.716Z,51.86
2023-01-19T13:08:47.975Z,52.70
2023-01-19T13:12:52.269Z,53.27
2023-01-19T13:16:59.871Z,53.94
2023-01-19T13:20:49.081Z,54.54
2023-01-19T13:24:31.474Z,54.17
2023-01-19T13:28:13.295Z,54.76
2023-01-19T13:31:55.023Z,54.89
2023-01-19T13:35:44.408Z,55.11
2023-01-19T13:39:33.715Z,55.53
2023-01-19T13:43:25.851Z,55.96
2023-01-19T13:47:15.113Z,55.72
2023-01-19T13:51:02.643Z,55.07
2023-01-19T13:55:00.492Z,55.64
2023-01-19T13:58:40.646Z,55.04
2023-01-19T14:02:29.928Z,56.02
2023-01-19T14:06:28.414Z,55.49
2023-01-19T14:09:45.792Z,55.75
2023-01-19T14:13:19.614Z,55.39
2023-01-19T14:16:30.879Z,55.75
2023-01-19T14:19:09.554Z,56.53
2023-01-19T14:22:45.609Z,56.04
2023-01-19T14:25:57.742Z,56.68
2023-01-19T14:29:14.792Z,56.91
2023-01-19T14:32:58.864Z,57.40
2023-01-19T14:35:59.141Z,57.55
2023-01-19T14:39:28.970Z,57.99
2023-01-19T14:42:42.337Z,58.35
2023-01-19T14:46:01.751Z,58.85
2023-01-19T14:49:13.230Z,58.68
2023-01-19T14:57:10.008Z,59.36
2023-01-19T15:00:21.075Z,59.35
2023-01-19T15:03:45.902Z,59.66
2023-01-19T15:07:35.364Z,60.48
2023-01-19T15:11:14.521Z,60.47
2023-01-19T15:14:56.393Z,60.74
2023-01-19T15:18:25.730Z,60.71
2023-01-19T15:22:07.373Z,60.77
2023-01-19T15:25:26.139Z,60.78
2023-01-19T15:29:15.462Z,60.46
2023-01-19T15:32:42.553Z,60.47
2023-01-19T15:36:16.969Z,60.66
2023-01-19T15:40:03.549Z,60.77
2023-01-19T15:43:40.357Z,61.30
2023-01-19T15:46:55.274Z,62.04
2023-01-19T15:50:06.751Z,62.06
2023-01-19T15:53:30.873Z,61.99
2023-01-19T15:56:53.646Z,62.65
2023-01-19T16:00:15.265Z,62.51
2023-01-19T16:03:41.210Z,62.92
2023-01-19T16:06:57.656Z,63.60
2023-01-19T16:10:29.829Z,64.20
2023-01-19T16:13:33.923Z,65.37
2023-01-19T16:16:55.640Z,66.86
2023-01-19T16:20:34.857Z,68.11
2023-01-19T16:23:41.001Z,69.97
2023-01-19T16:27:25.784Z,69.55
2023-01-19T16:31:05.070Z,73.47
2023-01-19T16:34:41.779Z,74.88
2023-01-19T16:38:30.989Z,75.92
2023-01-19T16:42:20.386Z,78.43
2023-01-19T16:45:48.564Z,76.76
2023-01-19T16:49:40.440Z,79.75
2023-01-19T16:53:10.708Z,85.09
2023-01-19T16:56:59.894Z,81.59
2023-01-19T17:00:36.828Z,81.72
2023-01-19T17:04:26.041Z,84.84
2023-01-19T17:07:58.122Z,82.20
2023-01-19T17:11:24.940Z,82.09
2023-01-19T17:15:06.798Z,80.61
2023-01-19T17:18:55.924Z,80.19
2023-01-19T17:22:45.141Z,80.39
2023-01-19T17:26:32.945Z,81.57
2023-01-19T17:30:14.176Z,82.15
2023-01-19T17:33:31.855Z,82.43
2023-01-19T17:37:21.104Z,82.73
2023-01-19T17:41:10.402Z,83.11
2023-01-19T17:44:59.615Z,85.70
2023-01-19T17:48:48.804Z,84.59
2023-01-19T17:52:37.892Z,85.70
2023-01-19T17:56:14.439Z,84.67
2023-01-19T18:00:03.650Z,85.28
2023-01-19T18:03:52.958Z,83.22
2023-01-19T18:07:42.190Z,83.20
2023-01-19T18:11:34.088Z,82.78
2023-01-19T18:15:17.055Z,83.04
2023-01-19T18:19:06.315Z,84.91
2023-01-19T18:22:55.522Z,86.23
2023-01-19T18:26:41.743Z,88.11
2023-01-19T18:30:29.563Z,87.73
2023-01-19T18:34:18.967Z,86.92
2023-01-19T18:38:00.642Z,86.82
2023-01-19T18:41:42.255Z,88.31
2023-01-19T18:45:31.390Z,87.11
2023-01-19T18:49:20.578Z,88.27
2023-01-19T18:53:08.748Z,89.76
2023-01-19T18:56:50.718Z,88.10
2023-01-19T19:00:39.913Z,89.05
2023-01-19T19:04:29.224Z,89.81
2023-01-19T19:08:17.186Z,90.14
2023-01-19T19:12:09.260Z,90.32
2023-01-19T19:15:58.516Z,89.12
2023-01-19T19:19:47.843Z,89.10
2023-01-19T19:23:11.470Z,88.03
2023-01-19T19:26:33.122Z,88.05
2023-01-19T19:30:15.466Z,89.54
2023-01-19T19:34:04.931Z,89.93
2023-01-19T19:37:46.734Z,89.23
2023-01-19T19:41:36.031Z,89.04
2023-01-19T19:45:23.601Z,88.63
2023-01-19T19:49:12.738Z,89.46
2023-01-19T19:53:01.967Z,89.40
2023-01-19T19:56:57.034Z,89.70
2023-01-19T20:00:39.277Z,89.27
2023-01-19T20:04:23.805Z,90.23
2023-01-19T20:07:52.728Z,89.68
2023-01-19T20:11:44.401Z,90.35
2023-01-19T20:15:33.576Z,88.90
2023-01-19T20:19:22.794Z,89.51
2023-01-19T20:23:04.368Z,89.81
2023-01-19T20:26:53.597Z,88.00
2023-01-19T20:30:42.996Z,89.60
2023-01-19T20:34:33.343Z,89.12
2023-01-19T20:38:23.018Z,91.59
2023-01-19T20:42:10.848Z,91.38
2023-01-19T20:46:00.193Z,90.19
2023-01-19T20:49:42.113Z,89.94
2023-01-19T20:53:31.344Z,88.83
2023-01-19T20:57:15.198Z,90.51
2023-01-19T21:01:04.201Z,88.51
2023-01-19T21:04:36.148Z,90.35
2023-01-19T21:08:25.401Z,88.87
2023-01-19T21:12:14.699Z,88.21
2023-01-19T21:16:03.983Z,90.13
2023-01-19T21:19:52.034Z,91.61
2023-01-19T21:23:32.333Z,91.23
2023-01-19T21:27:21.599Z,89.87
2023-01-19T21:31:09.888Z,90.19
2023-01-19T21:34:59.301Z,91.79
2023-01-19T21:38:41.068Z,91.83
2023-01-19T21:42:30.680Z,91.28
2023-01-19T21:46:14.994Z,92.02
2023-01-19T21:50:04.191Z,92.44
2023-01-19T21:53:52.458Z,90.15
2023-01-19T21:57:42.055Z,90.58
2023-01-19T22:01:24.136Z,91.61
2023-01-19T22:05:06.097Z,92.06
2023-01-19T22:08:54.126Z,91.09
2023-01-19T22:12:43.458Z,92.55
2023-01-19T22:16:33.709Z,90.95
2023-01-19T22:20:22.974Z,91.32
2023-01-19T22:24:11.154Z,92.08
2023-01-19T22:28:00.410Z,91.07
2023-01-19T22:31:49.662Z,91.40
2023-01-19T22:35:40.581Z,90.81
2023-01-19T22:39:29.779Z,91.78
2023-01-19T22:43:19.006Z,92.42
2023-01-19T22:47:08.262Z,91.63
2023-01-19T22:50:56.475Z,92.00
2023-01-19T22:54:45.715Z,92.91
2023-01-19T22:58:34.856Z,92.79
2023-01-19T23:02:24.057Z,92.44
2023-01-19T23:06:13.221Z,91.32
2023-01-19T23:10:00.867Z,92.19
2023-01-19T23:13:50.153Z,93.28
2023-01-19T23:17:37.615Z,91.96
2023-01-19T23:21:26.560Z,92.61
2023-01-19T23:25:15.774Z,92.23
2023-01-19T23:29:05.106Z,92.55
2023-01-19T23:32:54.279Z,92.55
2023-01-19T23:36:43.557Z,93.35
2023-01-19T23:40:32.814Z,93.59
2023-01-19T23:44:21.954Z,92.25
2023-01-19T23:48:11.051Z,91.81
2023-01-19T23:52:00.180Z,90.62
2023-01-19T23:55:49.527Z,91.96
2023-01-19T23:59:38.712Z,93.34
